createdAt,value
2017-10-04T00:00:51.596Z,54.80
2017-10-04T00:03:19.883Z,54.50
2017-10-04T00:05:48.159Z,54.90
2017-10-04T00:08:16.402Z,54.90
2017-10-04T00:10:44.659Z,54.80
2017-10-04T00:13:13.346Z,55.10
2017-10-04T00:15:41.987Z,54.80
2017-10-04T00:18:10.226Z,54.80
2017-10-04T00:20:38.511Z,54.60
2017-10-04T00:23:06.745Z,54.60
2017-10-04T00:25:35.021Z,54.30
2017-10-04T00:28:03.828Z,55.10
2017-10-04T00:30:32.476Z,55.10
2017-10-04T00:33:00.893Z,55.10
2017-10-04T00:35:29.368Z,55.10
2017-10-04T00:37:58.005Z,54.90
2017-10-04T00:40:26.255Z,54.90
2017-10-04T00:42:54.528Z,54.90
2017-10-04T00:45:22.789Z,54.80
2017-10-04T00:47:51.048Z,54.80
2017-10-04T00:50:19.329Z,54.80
2017-10-04T00:52:47.613Z,54.60
2017-10-04T00:55:16.313Z,55.10
2017-10-04T00:57:44.694Z,55.10
2017-10-04T01:00:12.939Z,55.40
2017-10-04T01:02:41.174Z,55.40
2017-10-04T01:05:09.457Z,55.40
2017-10-04T01:07:37.693Z,55.40
2017-10-04T01:10:05.973Z,55.20
2017-10-04T01:12:34.712Z,55.10
2017-10-04T01:15:02.970Z,54.90
2017-10-04T01:17:31.213Z,54.80
2017-10-04T01:19:59.496Z,54.80
2017-10-04T01:22:27.763Z,54.80
2017-10-04T01:24:56.005Z,54.80
2017-10-04T01:27:24.726Z,54.90
2017-10-04T01:29:52.969Z,54.90
2017-10-04T01:32:21.224Z,54.90
2017-10-04T01:34:49.500Z,55.20
2017-10-04T01:37:17.845Z,55.20
2017-10-04T01:39:46.115Z,55.20
2017-10-04T01:42:14.385Z,55.10
2017-10-04T01:44:42.625Z,55.10
2017-10-04T01:47:10.888Z,54.90
2017-10-04T01:49:39.171Z,54.90
2017-10-04T01:52:07.404Z,54.90
2017-10-04T01:54:35.658Z,54.90
2017-10-04T01:57:03.935Z,54.90
2017-10-04T01:59:32.196Z,55.20
2017-10-04T02:02:00.845Z,55.50
2017-10-04T02:04:29.124Z,55.50
2017-10-04T02:06:57.575Z,55.40
2017-10-04T02:09:25.815Z,55.40
2017-10-04T02:11:54.104Z,55.40
2017-10-04T02:14:22.548Z,55.40
2017-10-04T02:16:51.189Z,56.10
2017-10-04T02:19:19.487Z,56.10
2017-10-04T02:21:47.736Z,56.10
2017-10-04T02:24:16.008Z,56.60
2017-10-04T02:26:44.319Z,56.40
2017-10-04T02:29:12.564Z,56.40
2017-10-04T02:31:41.260Z,56.10
2017-10-04T02:34:09.526Z,56.00
2017-10-04T02:36:37.781Z,56.10
2017-10-04T02:39:06.328Z,56.40
2017-10-04T02:41:34.619Z,56.60
2017-10-04T02:44:03.273Z,57.30
2017-10-04T02:46:31.522Z,57.30
2017-10-04T02:49:04.617Z,57.20
2017-10-04T02:51:33.753Z,57.40
2017-10-04T02:54:07.013Z,58.00
2017-10-04T02:56:51.595Z,58.30
2017-10-04T02:59:20.225Z,58.60
2017-10-04T03:01:48.486Z,59.20
2017-10-04T03:04:17.104Z,58.90
2017-10-04T03:06:45.412Z,58.90
2017-10-04T03:09:13.660Z,58.60
2017-10-04T03:11:41.930Z,59.10
2017-10-04T03:14:10.233Z,59.20
2017-10-04T03:16:38.472Z,59.10
2017-10-04T03:19:06.728Z,59.20
2017-10-04T03:21:35.143Z,59.20
2017-10-04T03:26:37.989Z,59.80
2017-10-04T03:29:06.215Z,61.00
2017-10-04T03:31:34.464Z,61.70
2017-10-04T03:34:02.886Z,62.10
2017-10-04T03:36:31.565Z,62.40
2017-10-04T03:38:59.825Z,62.40
2017-10-04T03:41:28.096Z,61.90
2017-10-04T03:43:56.858Z,61.70
2017-10-04T03:46:25.422Z,61.20
2017-10-04T03:48:53.662Z,60.80
2017-10-04T03:51:21.924Z,60.60
2017-10-04T03:53:50.307Z,60.60
2017-10-04T03:56:18.884Z,60.30
2017-10-04T03:58:49.550Z,60.10
2017-10-04T04:01:17.836Z,60.80
2017-10-04T04:03:46.082Z,60.60
2017-10-04T04:06:14.518Z,60.10
2017-10-04T04:08:45.604Z,59.80
2017-10-04T04:11:13.905Z,59.80
2017-10-04T04:13:42.141Z,59.80
2017-10-04T04:16:10.392Z,61.30
2017-10-04T04:18:38.674Z,61.30
2017-10-04T04:21:07.310Z,61.70
2017-10-04T04:23:35.596Z,61.70
2017-10-04T04:26:03.867Z,61.90
2017-10-04T04:28:32.144Z,61.90
2017-10-04T04:31:00.485Z,61.50
2017-10-04T04:33:28.790Z,60.80
2017-10-04T04:35:57.046Z,60.10
2017-10-04T04:38:37.237Z,60.80
2017-10-04T04:41:06.027Z,60.00
2017-10-04T04:43:34.294Z,60.10
2017-10-04T04:46:02.571Z,61.50
2017-10-04T04:48:30.909Z,63.70
2017-10-04T04:50:59.140Z,63.90
2017-10-04T04:53:27.800Z,63.30
2017-10-04T04:55:56.072Z,63.30
2017-10-04T04:58:24.335Z,63.00
2017-10-04T05:00:52.652Z,62.10
2017-10-04T05:03:21.285Z,61.50
2017-10-04T05:05:49.540Z,61.70
2017-10-04T05:08:17.849Z,63.00
2017-10-04T05:10:46.103Z,62.10
2017-10-04T05:13:14.389Z,61.50
2017-10-04T05:15:42.653Z,60.60
2017-10-04T05:18:10.926Z,59.80
2017-10-04T05:20:39.161Z,59.50
2017-10-04T05:23:07.969Z,59.50
2017-10-04T05:25:36.816Z,60.10
2017-10-04T05:28:05.091Z,60.30
2017-10-04T05:30:33.462Z,60.60
2017-10-04T05:33:01.733Z,61.70
2017-10-04T05:35:30.019Z,62.20
2017-10-04T05:37:58.356Z,63.00
2017-10-04T05:40:26.619Z,64.40
2017-10-04T05:42:55.254Z,64.20
2017-10-04T05:45:23.595Z,64.20
2017-10-04T05:47:52.098Z,63.90
2017-10-04T05:50:20.361Z,62.60
2017-10-04T05:52:48.844Z,61.50
2017-10-04T05:55:17.229Z,60.40
2017-10-04T05:57:45.496Z,59.20
2017-10-04T06:00:14.116Z,59.10
2017-10-04T06:02:42.408Z,58.60
2017-10-04T06:05:10.888Z,59.10
2017-10-04T06:07:39.184Z,59.20
2017-10-04T06:10:07.438Z,58.60
2017-10-04T06:12:35.809Z,58.30
2017-10-04T06:15:04.072Z,57.70
2017-10-04T06:17:32.368Z,57.40
2017-10-04T06:20:00.629Z,57.60
2017-10-04T06:22:28.999Z,57.20
2017-10-04T06:24:57.239Z,56.60
2017-10-04T06:27:25.517Z,56.40
2017-10-04T06:29:53.769Z,56.30
2017-10-04T06:32:22.217Z,56.30
2017-10-04T06:34:50.550Z,56.60
2017-10-04T06:37:18.998Z,56.40
2017-10-04T06:39:47.681Z,56.00
2017-10-04T06:42:16.890Z,56.00
2017-10-04T06:44:46.102Z,55.10
2017-10-04T06:47:14.458Z,56.30
2017-10-04T06:49:42.801Z,56.60
2017-10-04T06:52:11.085Z,56.00
2017-10-04T06:54:39.346Z,55.20
2017-10-04T06:57:07.608Z,54.90
2017-10-04T06:59:35.913Z,57.60
2017-10-04T07:02:04.313Z,62.20
2017-10-04T07:04:32.676Z,66.20
2017-10-04T07:07:01.049Z,68.90
2017-10-04T07:09:29.668Z,68.90
2017-10-04T07:11:58.113Z,70.90
2017-10-04T07:14:26.357Z,71.60
2017-10-04T07:16:54.686Z,72.50
2017-10-04T07:19:23.052Z,72.80
2017-10-04T07:21:51.300Z,73.00
2017-10-04T07:24:19.597Z,73.70
2017-10-04T07:26:47.848Z,73.00
2017-10-04T07:29:16.340Z,72.70
2017-10-04T07:31:44.648Z,72.70
2017-10-04T07:34:12.931Z,72.50
2017-10-04T07:36:41.607Z,72.30
2017-10-04T07:39:10.262Z,72.30
2017-10-04T07:41:38.522Z,73.20
2017-10-04T07:44:06.805Z,72.80
2017-10-04T07:46:35.116Z,72.10
2017-10-04T07:49:03.366Z,72.30
2017-10-04T07:51:31.666Z,70.50
2017-10-04T07:53:59.930Z,70.10
2017-10-04T07:56:28.188Z,69.10
2017-10-04T07:58:56.473Z,70.70
2017-10-04T08:01:24.741Z,69.60
2017-10-04T08:03:52.989Z,69.10
2017-10-04T08:06:21.393Z,70.30
2017-10-04T08:08:49.644Z,70.70
2017-10-04T08:11:17.898Z,70.30
2017-10-04T08:13:46.546Z,70.70
2017-10-04T08:16:14.788Z,70.70
2017-10-04T08:18:43.917Z,71.00
2017-10-04T08:21:12.156Z,69.60
2017-10-04T08:23:40.434Z,68.70
2017-10-04T08:26:08.728Z,68.90
2017-10-04T08:28:36.992Z,69.40
2017-10-04T08:31:05.398Z,67.10
2017-10-04T08:33:37.439Z,66.90
2017-10-04T08:36:05.966Z,66.40
2017-10-04T08:38:34.438Z,64.80
2017-10-04T08:41:02.810Z,64.90
2017-10-04T08:43:31.057Z,64.00
2017-10-04T08:45:59.674Z,63.70
2017-10-04T08:48:39.751Z,63.70
2017-10-04T08:51:08.079Z,61.70
2017-10-04T08:53:36.658Z,63.50
2017-10-04T08:56:04.960Z,64.80
2017-10-04T08:58:33.206Z,65.70
2017-10-04T09:01:02.368Z,66.90
2017-10-04T09:03:30.628Z,64.90
2017-10-04T09:06:03.150Z,59.20
2017-10-04T09:08:31.461Z,59.20
2017-10-04T09:10:59.736Z,58.30
2017-10-04T09:13:28.003Z,57.40
2017-10-04T09:15:56.277Z,56.30
2017-10-04T09:18:24.579Z,56.00
2017-10-04T09:20:52.932Z,55.20
2017-10-04T09:23:21.685Z,53.90
2017-10-04T09:25:50.060Z,53.90
2017-10-04T09:28:18.318Z,53.20
2017-10-04T09:30:46.979Z,51.20
2017-10-04T09:33:15.452Z,51.20
2017-10-04T09:35:43.714Z,50.50
2017-10-04T09:38:12.008Z,49.90
2017-10-04T09:40:40.596Z,49.20
2017-10-04T09:43:08.861Z,48.60
2017-10-04T09:45:37.164Z,48.40
2017-10-04T09:48:07.075Z,48.30
2017-10-04T09:50:35.407Z,47.80
2017-10-04T09:53:03.842Z,47.80
2017-10-04T09:55:33.698Z,47.70
2017-10-04T09:58:01.982Z,47.10
2017-10-04T10:00:30.532Z,48.40
2017-10-04T10:02:59.423Z,48.10
2017-10-04T10:05:27.789Z,48.30
2017-10-04T10:07:56.398Z,47.70
2017-10-04T10:10:24.709Z,47.30
2017-10-04T10:12:53.293Z,47.10
2017-10-04T10:15:21.730Z,47.00
2017-10-04T10:17:49.983Z,46.70
2017-10-04T10:20:18.886Z,47.00
2017-10-04T10:22:47.495Z,47.40
2017-10-04T10:25:15.779Z,47.70
2017-10-04T10:27:44.050Z,48.00
2017-10-04T10:30:12.412Z,48.00
2017-10-04T10:32:40.713Z,47.40
2017-10-04T10:35:09.807Z,47.80
2017-10-04T10:37:38.167Z,48.10
2017-10-04T10:40:06.523Z,48.40
2017-10-04T10:42:35.193Z,48.90
2017-10-04T10:45:03.529Z,48.90
2017-10-04T10:47:31.769Z,49.00
2017-10-04T10:50:00.449Z,49.60
2017-10-04T10:52:28.938Z,49.60
2017-10-04T10:54:57.625Z,48.60
2017-10-04T10:57:26.018Z,48.40
2017-10-04T10:59:54.329Z,49.30
2017-10-04T11:02:23.216Z,49.60
2017-10-04T11:04:51.608Z,49.90
2017-10-04T11:07:20.557Z,49.20
2017-10-04T11:09:48.801Z,49.20
2017-10-04T11:12:17.486Z,49.50
2017-10-04T11:14:46.172Z,49.80
2017-10-04T11:17:14.483Z,49.80
2017-10-04T11:19:42.741Z,48.40
2017-10-04T11:22:11.168Z,49.90
2017-10-04T11:24:39.423Z,49.90
2017-10-04T11:27:07.687Z,49.90
2017-10-04T11:29:35.968Z,49.90
2017-10-04T11:32:04.230Z,49.80
2017-10-04T11:34:32.506Z,48.40
2017-10-04T11:37:00.839Z,49.90
2017-10-04T11:39:29.093Z,49.90
2017-10-04T11:41:57.406Z,49.60
2017-10-04T11:44:26.112Z,49.30
2017-10-04T11:46:54.438Z,49.30
2017-10-04T11:49:22.770Z,49.30
2017-10-04T11:51:51.027Z,49.00
2017-10-04T11:54:19.326Z,48.90
2017-10-04T11:56:47.822Z,48.00
2017-10-04T11:59:16.160Z,48.30
2017-10-04T12:01:44.424Z,47.40
2017-10-04T12:04:12.804Z,48.40
2017-10-04T12:06:42.511Z,48.30
2017-10-04T12:09:10.784Z,48.60
2017-10-04T12:11:39.479Z,48.40
2017-10-04T12:14:07.744Z,48.40
2017-10-04T12:16:35.995Z,48.70
2017-10-04T12:19:04.304Z,48.00
2017-10-04T12:21:32.609Z,47.50
2017-10-04T12:24:01.091Z,48.00
2017-10-04T12:26:29.724Z,48.10
2017-10-04T12:28:58.249Z,48.10
2017-10-04T12:31:26.908Z,47.50
2017-10-04T12:33:56.380Z,47.10
2017-10-04T12:36:24.934Z,47.10
2017-10-04T12:38:53.597Z,47.10
2017-10-04T12:41:22.301Z,46.10
2017-10-04T12:43:50.671Z,46.10
2017-10-04T12:46:18.960Z,45.90
2017-10-04T12:48:47.678Z,47.50
2017-10-04T12:51:15.945Z,47.50
2017-10-04T12:53:44.207Z,47.50
2017-10-04T12:56:12.470Z,47.30
2017-10-04T12:58:40.770Z,47.00
2017-10-04T13:01:09.040Z,47.00
2017-10-04T13:03:37.516Z,46.70
2017-10-04T13:06:05.890Z,47.00
2017-10-04T13:08:34.136Z,46.70
2017-10-04T13:11:02.820Z,47.50
2017-10-04T13:13:31.545Z,46.70
2017-10-04T13:15:59.813Z,46.70
2017-10-04T13:18:28.103Z,46.50
2017-10-04T13:20:56.426Z,46.20
2017-10-04T13:23:24.785Z,47.70
2017-10-04T13:25:53.056Z,47.30
2017-10-04T13:28:21.366Z,47.00
2017-10-04T13:30:49.714Z,47.00
2017-10-04T13:33:18.240Z,47.00
2017-10-04T13:35:46.745Z,46.10
2017-10-04T13:38:14.992Z,46.80
2017-10-04T13:40:44.039Z,47.00
2017-10-04T13:43:12.280Z,47.00
2017-10-04T13:45:40.581Z,46.20
2017-10-04T13:48:08.976Z,47.00
2017-10-04T13:50:37.251Z,47.50
2017-10-04T13:53:05.502Z,48.00
2017-10-04T13:55:33.818Z,47.50
2017-10-04T13:58:02.105Z,48.00
2017-10-04T14:00:30.497Z,47.80
2017-10-04T14:02:58.761Z,47.70
2017-10-04T14:05:27.021Z,47.40
2017-10-04T14:07:55.325Z,47.00
2017-10-04T14:10:23.573Z,47.70
2017-10-04T14:12:51.868Z,48.10
2017-10-04T14:15:20.501Z,47.30
2017-10-04T14:17:48.764Z,48.00
2017-10-04T14:20:17.010Z,48.40
2017-10-04T14:22:45.372Z,48.60
2017-10-04T14:25:13.632Z,48.10
2017-10-04T14:27:42.642Z,48.10
2017-10-04T14:30:10.938Z,48.10
2017-10-04T14:32:39.201Z,48.40
2017-10-04T14:35:07.561Z,48.60
2017-10-04T14:37:36.021Z,48.70
2017-10-04T14:40:04.277Z,48.60
2017-10-04T14:42:32.517Z,48.70
2017-10-04T14:45:00.865Z,49.20
2017-10-04T14:47:29.153Z,49.30
2017-10-04T14:49:57.479Z,50.10
2017-10-04T14:52:25.808Z,49.30
2017-10-04T14:54:54.301Z,49.50
2017-10-04T14:57:22.596Z,49.50
2017-10-04T14:59:52.382Z,49.00
2017-10-04T15:02:20.902Z,49.60
2017-10-04T15:04:49.189Z,49.00
2017-10-04T15:07:17.512Z,49.20
2017-10-04T15:09:46.908Z,49.30
2017-10-04T15:12:15.225Z,48.90
2017-10-04T15:14:43.511Z,49.00
2017-10-04T15:17:11.895Z,48.30
2017-10-04T15:19:40.147Z,48.90
2017-10-04T15:22:08.625Z,49.30
2017-10-04T15:24:36.940Z,49.50
2017-10-04T15:27:05.253Z,49.50
2017-10-04T15:29:33.516Z,49.00
2017-10-04T15:32:02.070Z,49.50
2017-10-04T15:34:30.357Z,50.20
2017-10-04T15:36:59.369Z,50.20
2017-10-04T15:39:27.721Z,49.90
2017-10-04T15:41:56.014Z,49.30
2017-10-04T15:44:24.352Z,49.80
2017-10-04T15:46:52.709Z,49.90
2017-10-04T15:49:21.396Z,50.50
2017-10-04T15:51:49.672Z,50.50
2017-10-04T15:54:17.988Z,50.40
2017-10-04T15:56:46.272Z,49.80
2017-10-04T15:59:14.841Z,49.80
2017-10-04T16:01:43.199Z,50.50
2017-10-04T16:04:11.523Z,50.40
2017-10-04T16:06:39.784Z,49.80
2017-10-04T16:09:08.760Z,49.50
2017-10-04T16:11:37.008Z,49.50
2017-10-04T16:14:05.267Z,49.30
2017-10-04T16:16:33.580Z,49.60
2017-10-04T16:19:01.882Z,49.80
2017-10-04T16:21:30.452Z,49.60
2017-10-04T16:24:00.042Z,49.80
2017-10-04T16:26:28.276Z,49.80
2017-10-04T16:28:56.557Z,49.50
2017-10-04T16:31:25.338Z,50.20
2017-10-04T16:33:53.658Z,50.20
2017-10-04T16:36:21.921Z,49.90
2017-10-04T16:38:50.613Z,49.50
2017-10-04T16:41:18.894Z,49.50
2017-10-04T16:43:47.219Z,50.20
2017-10-04T16:46:15.548Z,50.10
2017-10-04T16:48:44.220Z,49.60
2017-10-04T16:51:12.857Z,50.10
2017-10-04T16:53:41.270Z,50.10
2017-10-04T16:56:09.516Z,49.90
2017-10-04T16:58:37.957Z,49.80
2017-10-04T17:01:06.713Z,49.60
2017-10-04T17:03:34.988Z,49.60
2017-10-04T17:06:03.248Z,50.70
2017-10-04T17:08:31.498Z,50.70
2017-10-04T17:10:59.754Z,50.40
2017-10-04T17:13:28.027Z,50.40
2017-10-04T17:15:56.396Z,50.20
2017-10-04T17:18:24.689Z,49.90
2017-10-04T17:20:53.310Z,50.10
2017-10-04T17:23:21.639Z,50.10
2017-10-04T17:25:49.941Z,50.20
2017-10-04T17:28:18.181Z,50.40
2017-10-04T17:30:46.454Z,50.50
2017-10-04T17:33:14.720Z,50.70
2017-10-04T17:35:43.364Z,50.50
2017-10-04T17:38:11.646Z,50.50
2017-10-04T17:40:40.124Z,50.70
2017-10-04T17:43:08.399Z,50.70
2017-10-04T17:45:36.706Z,50.50
2017-10-04T17:48:04.948Z,50.40
2017-10-04T17:50:33.260Z,50.20
2017-10-04T17:53:01.940Z,50.20
2017-10-04T17:55:30.209Z,50.50
2017-10-04T17:57:58.523Z,51.10
2017-10-04T18:00:27.474Z,51.10
2017-10-04T18:02:55.775Z,51.50
2017-10-04T18:05:24.339Z,51.20
2017-10-04T18:07:52.849Z,51.50
2017-10-04T18:10:21.546Z,51.50
2017-10-04T18:12:49.877Z,51.50
2017-10-04T18:15:18.193Z,51.70
2017-10-04T18:17:46.899Z,51.20
2017-10-04T18:20:15.243Z,51.20
2017-10-04T18:22:43.942Z,51.50
2017-10-04T18:25:12.229Z,51.50
2017-10-04T18:27:40.569Z,51.70
2017-10-04T18:30:08.858Z,51.80
2017-10-04T18:32:37.238Z,51.80
2017-10-04T18:35:05.651Z,51.70
2017-10-04T18:37:33.909Z,51.20
2017-10-04T18:40:02.786Z,51.50
2017-10-04T18:42:31.160Z,51.50
2017-10-04T18:45:00.057Z,51.40
2017-10-04T18:47:28.761Z,50.90
2017-10-04T18:49:57.033Z,50.90
2017-10-04T18:52:25.293Z,50.70
2017-10-04T18:54:53.733Z,50.70
2017-10-04T18:57:22.041Z,50.50
2017-10-04T18:59:50.349Z,50.50
2017-10-04T19:02:18.718Z,50.40
2017-10-04T19:04:56.871Z,50.40
2017-10-04T19:07:27.117Z,50.40
2017-10-04T19:09:55.514Z,50.80
2017-10-04T19:12:24.210Z,50.90
2017-10-04T19:14:52.893Z,50.70
2017-10-04T19:17:21.160Z,50.70
2017-10-04T19:19:49.913Z,50.90
2017-10-04T19:22:18.238Z,50.90
2017-10-04T19:24:47.345Z,51.50
2017-10-04T19:27:16.542Z,51.50
2017-10-04T19:29:44.826Z,51.20
2017-10-04T19:32:14.419Z,50.80
2017-10-04T19:34:44.604Z,50.70
2017-10-04T19:37:15.837Z,50.70
2017-10-04T19:39:45.525Z,50.70
2017-10-04T19:42:14.319Z,50.50
2017-10-04T19:44:43.247Z,50.40
2017-10-04T19:47:12.934Z,50.10
2017-10-04T19:49:41.245Z,50.10
2017-10-04T19:52:09.915Z,50.10
2017-10-04T19:54:38.198Z,50.10
2017-10-04T19:57:06.484Z,57.70
2017-10-04T19:59:34.709Z,53.90
2017-10-04T20:02:02.977Z,55.70
2017-10-04T20:04:31.265Z,55.40
2017-10-04T20:06:59.872Z,55.20
2017-10-04T20:09:28.177Z,52.70
2017-10-04T20:11:56.502Z,54.30
2017-10-04T20:14:24.747Z,54.10
2017-10-04T20:16:53.012Z,53.80
2017-10-04T20:19:21.664Z,52.30
2017-10-04T20:21:49.961Z,52.30
2017-10-04T20:24:18.290Z,52.40
2017-10-04T20:26:46.583Z,53.50
2017-10-04T20:29:14.854Z,53.90
2017-10-04T20:31:43.984Z,53.30
2017-10-04T20:34:12.232Z,53.50
2017-10-04T20:36:40.596Z,53.00
2017-10-04T20:42:12.061Z,51.40
2017-10-04T20:44:40.425Z,56.40
2017-10-04T20:47:08.739Z,54.50
2017-10-04T20:49:37.112Z,55.70
2017-10-04T20:52:05.568Z,51.40
2017-10-04T20:54:33.844Z,55.50
2017-10-04T20:57:02.106Z,53.50
2017-10-04T20:59:38.041Z,54.80
2017-10-04T21:02:06.329Z,55.50
2017-10-04T21:04:34.653Z,51.20
2017-10-04T21:07:02.973Z,54.10
2017-10-04T21:09:31.624Z,51.70
2017-10-04T21:11:59.938Z,51.70
2017-10-04T21:14:28.686Z,52.10
2017-10-04T21:16:56.957Z,53.30
2017-10-04T21:19:25.638Z,52.10
2017-10-04T21:21:54.277Z,52.10
2017-10-04T21:24:22.817Z,54.50
2017-10-04T21:26:51.048Z,53.60
2017-10-04T21:29:19.309Z,50.40
2017-10-04T21:31:47.578Z,51.80
2017-10-04T21:34:15.897Z,55.20
2017-10-04T21:36:44.354Z,53.90
2017-10-04T21:39:12.687Z,50.70
2017-10-04T21:41:40.934Z,52.00
2017-10-04T21:44:09.256Z,54.80
2017-10-04T21:46:38.175Z,52.90
2017-10-04T21:49:06.467Z,52.90
2017-10-04T21:51:34.751Z,52.30
2017-10-04T21:54:03.150Z,53.60
2017-10-04T21:56:36.752Z,52.10
2017-10-04T21:59:06.496Z,52.10
2017-10-04T22:01:35.480Z,55.20
2017-10-04T22:04:04.561Z,54.80
2017-10-04T22:06:33.488Z,53.80
2017-10-04T22:09:02.528Z,53.50
2017-10-04T22:11:32.174Z,53.00
2017-10-04T22:14:01.448Z,52.90
2017-10-04T22:16:30.847Z,49.60
2017-10-04T22:18:59.867Z,52.40
2017-10-04T22:21:28.727Z,52.40
2017-10-04T22:23:58.731Z,52.40
2017-10-04T22:26:28.790Z,53.20
2017-10-04T22:28:57.878Z,51.10
2017-10-04T22:31:26.985Z,50.20
2017-10-04T22:33:56.549Z,50.20
2017-10-04T22:36:25.210Z,50.80
2017-10-04T22:38:54.910Z,51.40
2017-10-04T22:41:23.890Z,50.50
2017-10-04T22:43:54.896Z,51.10
2017-10-04T22:46:25.412Z,51.10
2017-10-04T22:48:55.722Z,51.10
2017-10-04T22:51:26.574Z,51.10
2017-10-04T22:53:57.713Z,51.10
2017-10-04T22:56:28.165Z,51.20
2017-10-04T22:58:58.090Z,51.20
2017-10-04T23:01:28.388Z,51.20
2017-10-04T23:03:59.070Z,51.40
2017-10-04T23:06:29.856Z,51.10
2017-10-04T23:09:00.961Z,50.90
2017-10-04T23:11:33.079Z,50.80
2017-10-04T23:14:04.355Z,50.90
2017-10-04T23:16:34.533Z,50.90
2017-10-04T23:19:04.021Z,50.70
2017-10-04T23:21:33.190Z,50.80
2017-10-04T23:24:01.859Z,50.80
2017-10-04T23:26:30.324Z,50.80
2017-10-04T23:28:59.595Z,50.20
2017-10-04T23:31:27.845Z,50.20
2017-10-04T23:33:56.471Z,51.20
2017-10-04T23:36:24.695Z,51.20
2017-10-04T23:38:52.929Z,51.10
2017-10-04T23:41:21.210Z,50.20
2017-10-04T23:43:49.443Z,51.10
2017-10-04T23:46:17.681Z,50.90
2017-10-04T23:48:46.333Z,51.20
2017-10-04T23:51:14.560Z,50.80
2017-10-04T23:53:42.823Z,50.40
2017-10-04T23:56:11.112Z,50.90
2017-10-04T23:58:39.371Z,51.20
